Sevilleta

April 5, 2020, 8 a.m.

  • imperial
Air Temperature RH Wind Speed Wind Direction Precipitation Solar Radiation Soil Temperature
Date Time Max Min Mean Max Min Max Mean Mean Total Total
US/Mountain F F F % % MPH MPH deg. in. MJ/m^2 F
2020-04-04 12:00 64.4 62.42 63.68 24.0 20.0 16.8 6.6 222.0 0.0 3.272 61.16
2020-04-04 13:00 67.28 64.4 66.56 20.0 17.0 19.91 8.99 186.0 0.0 3.294 65.12
2020-04-04 14:00 69.26 67.28 68.0 16.0 16.0 23.6 9.31 166.0 0.0 3.078 67.46
2020-04-04 15:00 70.16 68.54 69.08 16.0 14.0 17.4 7.7 196.0 0.0 2.65 70.34
2020-04-04 16:00 70.88 69.08 70.34 14.0 14.0 20.2 10.4 188.0 0.0 1.995 71.42
2020-04-04 17:00 71.6 70.52 71.24 14.0 13.0 25.3 14.61 174.0 0.0 1.318 71.06
2020-04-04 18:00 70.88 69.08 69.98 12.0 12.0 25.9 15.59 171.0 0.0 0.534 70.34
2020-04-04 19:00 69.08 64.4 66.02 14.0 12.0 21.5 14.09 164.0 0.0 0.031 68.54
2020-04-04 20:00 64.04 62.24 63.32 14.0 13.0 22.19 11.7 171.0 0.0 0.0 67.1
2020-04-04 21:00 62.24 57.74 58.82 17.0 13.0 12.59 7.29 200.0 0.0 0.0 65.48
2020-04-04 22:00 60.62 56.66 58.64 18.0 15.0 14.41 6.4 202.0 0.0 0.0 64.4
2020-04-04 23:00 56.66 48.56 51.98 24.0 18.0 7.49 4.21 180.0 0.0 0.0 63.14
2020-04-05 00:00 49.64 42.26 45.5 30.0 22.0 7.81 3.69 170.0 0.0 0.0 62.24
2020-04-05 01:00 51.8 42.26 47.48 30.0 20.0 6.71 3.8 191.0 0.0 0.0 60.44
2020-04-05 02:00 40.82 38.66 39.2 35.0 31.0 7.61 5.1 158.0 0.0 0.0 59.36
2020-04-05 03:00 43.88 37.4 39.92 37.0 29.0 7.09 5.01 170.0 0.0 0.0 58.28
2020-04-05 04:00 47.66 40.1 42.8 33.0 25.0 8.7 4.21 187.0 0.0 0.0 57.38
2020-04-05 05:00
2020-04-05 06:00 32.0 35.78 36.86 7.0 41.0 5.1 1.9 2.0 400.0 0.002 35.24
2020-04-05 07:00 44.96 35.78 41.36 41.0 32.0 6.2 3.4 162.0 0.0 0.383 54.86
2020-04-05 08:00 57.92 51.44 55.94 27.0 18.0 8.79 3.4 211.0 0.0 1.279 54.68
2020-04-05 09:00
2020-04-05 10:00
2020-04-05 11:00

Data is presented as is, with no certification of correctness. DO NOT USE IN LEGAL PROCEEDINGS.